Time;durP1;ratioP1;P1;durP2;ratioP2;P2;SDS_P1;SDS_P2;PMS_P1;PMS_P2;Temp;Humidity;BMP_temperature;BMP_pressure;BME280_temperature;BME280_humidity;BME280_pressure;Samples;Min_cycle;Max_cycle;Signal;HPM_P1;HPM_P2
2021/09/29 00:02:14;;;;;;;6.80;6.30;;;14.90;52.60;;;;;;5013811;28;20487;-85
2021/09/29 00:04:40;;;;;;;9.43;5.90;;;14.90;52.10;;;;;;5014053;28;20204;-85
2021/09/29 00:07:06;;;;;;;7.07;5.97;;;14.90;52.00;;;;;;5013442;28;20178;-85
2021/09/29 00:09:31;;;;;;;6.37;5.80;;;14.90;52.60;;;;;;5013993;28;20177;-85
2021/09/29 00:11:57;;;;;;;7.17;6.60;;;14.90;52.00;;;;;;5013633;28;20424;-86
2021/09/29 00:14:23;;;;;;;6.27;5.87;;;14.90;51.80;;;;;;5013460;28;20185;-85
2021/09/29 00:16:48;;;;;;;6.73;6.03;;;14.90;52.10;;;;;;5013440;28;20173;-85
2021/09/29 00:19:14;;;;;;;6.80;6.07;;;14.90;51.90;;;;;;5013521;28;20544;-85
2021/09/29 00:21:40;;;;;;;6.47;5.93;;;14.90;52.00;;;;;;5013255;28;20188;-86
2021/09/29 00:24:05;;;;;;;7.45;6.75;;;14.90;51.70;;;;;;5013081;28;20434;-86
2021/09/29 00:26:31;;;;;;;6.57;5.97;;;14.90;51.50;;;;;;5013106;28;20181;-84
2021/09/29 00:28:57;;;;;;;6.53;6.00;;;14.90;52.00;;;;;;5013403;28;20416;-85
2021/09/29 00:33:58;;;;;;;6.50;5.90;;;14.90;51.90;;;;;;5014667;28;20169;-85
2021/09/29 00:36:23;;;;;;;7.60;6.80;;;14.80;52.10;;;;;;5012981;28;20849;-85
2021/09/29 00:38:49;;;;;;;6.87;6.27;;;14.90;52.30;;;;;;5013153;28;20507;-85
2021/09/29 00:41:15;;;;;;;6.33;5.83;;;14.80;52.10;;;;;;5013074;28;20630;-84
2021/09/29 00:43:40;;;;;;;7.20;6.60;;;14.80;52.50;;;;;;5012936;28;20208;-84
2021/09/29 00:46:06;;;;;;;7.00;6.40;;;14.80;52.80;;;;;;5013189;28;20173;-84
2021/09/29 00:48:31;;;;;;;8.47;7.20;;;14.80;52.80;;;;;;5012757;28;20174;-85
2021/09/29 00:50:58;;;;;;;7.80;7.20;;;14.90;52.40;;;;;;5012765;28;20176;-85
2021/09/29 00:53:25;;;;;;;12.03;7.60;;;14.90;52.20;;;;;;5012955;28;20350;-84
2021/09/29 00:55:51;;;;;;;7.90;7.10;;;14.90;52.30;;;;;;5012719;28;20507;-84
2021/09/29 00:58:17;;;;;;;7.70;7.10;;;14.80;52.70;;;;;;5012316;28;20526;-84
2021/09/29 01:00:42;;;;;;;10.60;7.30;;;14.80;52.90;;;;;;5012727;28;20178;-85
2021/09/29 01:03:09;;;;;;;9.70;7.10;;;14.90;52.50;;;;;;5012686;28;20459;-84
2021/09/29 01:05:36;;;;;;;8.60;7.90;;;14.80;52.30;;;;;;5012603;28;20204;-84
2021/09/29 01:08:15;;;;;;;8.83;6.73;;;14.80;52.90;;;;;;5012322;28;20913;-84
2021/09/29 01:11:08;;;;;;;9.97;8.70;;;14.80;52.80;;;;;;5012453;28;20451;-85
2021/09/29 01:14:12;;;;;;;8.43;7.50;;;14.90;52.80;;;;;;5012231;28;20983;-85
2021/09/29 01:16:39;;;;;;;9.47;7.07;;;14.90;52.80;;;;;;5000516;28;20428;-86
2021/09/29 01:19:35;;;;;;;10.80;8.20;;;14.80;53.10;;;;;;5012200;28;20424;-84
2021/09/29 01:22:46;;;;;;;7.90;7.10;;;14.90;52.80;;;;;;5012002;28;20455;-85
2021/09/29 01:25:26;;;;;;;7.63;7.03;;;14.70;52.90;;;;;;5012215;28;20428;-85
2021/09/29 01:27:53;;;;;;;8.07;7.17;;;14.70;53.30;;;;;;5011942;28;20412;-85
2021/09/29 01:30:19;;;;;;;9.63;7.43;;;14.70;53.20;;;;;;5012085;28;20409;-85
2021/09/29 01:32:46;;;;;;;8.07;7.27;;;14.70;54.00;;;;;;5011916;28;20855;-85
2021/09/29 01:35:12;;;;;;;8.20;7.40;;;14.70;53.90;;;;;;5013462;28;20178;-85
2021/09/29 01:37:39;;;;;;;8.43;7.77;;;14.70;53.80;;;;;;5011608;28;20523;-86
2021/09/29 01:40:08;;;;;;;7.30;6.70;;;14.70;54.00;;;;;;5013131;28;20415;-86
2021/09/29 01:42:34;;;;;;;8.20;6.70;;;14.60;54.40;;;;;;5011512;28;20463;-86
2021/09/29 01:45:00;;;;;;;7.80;7.10;;;14.70;54.50;;;;;;5011698;28;20455;-86
2021/09/29 01:47:25;;;;;;;9.30;6.97;;;14.70;53.80;;;;;;5011479;28;20448;-84
2021/09/29 01:49:54;;;;;;;6.83;6.23;;;14.70;53.70;;;;;;5011791;28;20237;-85
2021/09/29 01:52:22;;;;;;;9.43;6.93;;;14.60;53.30;;;;;;5011454;28;20197;-85
2021/09/29 01:54:49;;;;;;;8.43;7.63;;;14.70;53.60;;;;;;5011082;28;20492;-85
2021/09/29 01:57:16;;;;;;;7.23;6.63;;;14.70;53.80;;;;;;5011299;28;20470;-85
2021/09/29 01:59:43;;;;;;;7.27;6.67;;;14.80;53.10;;;;;;5011553;28;20448;-85
2021/09/29 02:02:11;;;;;;;9.77;7.40;;;14.70;53.70;;;;;;5011374;28;20466;-85
2021/09/29 02:04:43;;;;;;;7.63;6.83;;;14.70;53.80;;;;;;5011579;28;20780;-85
2021/09/29 02:07:08;;;;;;;7.70;7.10;;;14.70;53.50;;;;;;5011164;28;20811;-85
2021/09/29 02:09:34;;;;;;;7.20;6.60;;;14.70;53.60;;;;;;5011388;28;20499;-85
2021/09/29 02:12:00;;;;;;;8.30;7.67;;;14.70;53.80;;;;;;5011234;28;20181;-85
2021/09/29 02:14:25;;;;;;;6.77;6.23;;;14.60;53.60;;;;;;5011312;28;20177;-85
2021/09/29 02:16:53;;;;;;;7.30;6.70;;;14.60;53.70;;;;;;5011066;28;20477;-85
2021/09/29 02:19:20;;;;;;;7.93;7.13;;;14.50;53.70;;;;;;5011304;28;20177;-85
2021/09/29 02:21:46;;;;;;;7.90;7.20;;;14.60;53.80;;;;;;5011044;28;20420;-85
2021/09/29 02:24:12;;;;;;;7.77;6.93;;;14.50;54.40;;;;;;5011242;28;20454;-85
2021/09/29 02:26:38;;;;;;;7.47;6.80;;;14.60;54.40;;;;;;5010757;28;20416;-85
2021/09/29 02:29:05;;;;;;;7.30;6.80;;;14.50;54.00;;;;;;5011201;28;20424;-84
2021/09/29 02:31:32;;;;;;;8.00;7.37;;;14.50;54.00;;;;;;5011058;28;20415;-83
2021/09/29 02:33:58;;;;;;;8.37;7.60;;;14.60;53.40;;;;;;5011101;28;20424;-85
2021/09/29 02:36:24;;;;;;;6.97;6.47;;;14.60;54.00;;;;;;5011185;28;20412;-85
2021/09/29 02:38:51;;;;;;;7.20;6.50;;;14.60;53.50;;;;;;5010762;28;20478;-85
2021/09/29 02:41:18;;;;;;;7.17;6.60;;;14.50;53.80;;;;;;5011110;28;20590;-85
2021/09/29 02:43:45;;;;;;;6.93;6.53;;;14.60;54.10;;;;;;5010931;28;20745;-85
2021/09/29 02:46:11;;;;;;;6.63;6.13;;;14.60;53.70;;;;;;5011128;28;20409;-85
2021/09/29 02:48:36;;;;;;;7.50;7.00;;;14.70;53.40;;;;;;5010729;28;20582;-84
2021/09/29 02:51:03;;;;;;;5.93;5.43;;;14.70;52.90;;;;;;5010974;28;20412;-85
2021/09/29 02:53:29;;;;;;;7.43;6.03;;;14.70;52.50;;;;;;5010727;28;20200;-85
2021/09/29 02:55:59;;;;;;;7.43;6.47;;;14.70;52.50;;;;;;5010765;28;20892;-85
2021/09/29 02:58:25;;;;;;;7.10;6.40;;;14.70;51.80;;;;;;5010515;28;20929;-85
2021/09/29 03:00:52;;;;;;;6.87;6.27;;;14.70;51.90;;;;;;5010970;28;20477;-85
2021/09/29 03:03:18;;;;;;;6.53;6.03;;;14.70;51.70;;;;;;5010610;28;20474;-85
2021/09/29 03:05:45;;;;;;;7.70;7.00;;;14.70;50.70;;;;;;5010811;28;20511;-85
2021/09/29 03:08:11;;;;;;;7.17;6.57;;;14.70;50.80;;;;;;5014066;28;20507;-85
2021/09/29 03:10:38;;;;;;;9.20;5.90;;;14.70;50.80;;;;;;5014533;28;20413;-85
2021/09/29 03:13:05;;;;;;;6.43;5.37;;;14.60;51.10;;;;;;5014490;28;20423;-85
2021/09/29 03:15:30;;;;;;;7.70;6.90;;;14.60;51.30;;;;;;5014705;28;20925;-83
2021/09/29 03:17:56;;;;;;;6.90;6.27;;;14.60;51.90;;;;;;5014173;28;20427;-84
2021/09/29 03:20:24;;;;;;;6.70;6.20;;;14.60;51.40;;;;;;5014426;28;20227;-85
2021/09/29 03:22:50;;;;;;;6.70;6.20;;;14.50;51.30;;;;;;5014218;28;20617;-84
2021/09/29 03:25:16;;;;;;;7.57;6.80;;;14.40;51.40;;;;;;5015580;28;20440;-86
2021/09/29 03:27:42;;;;;;;7.57;6.97;;;14.40;51.70;;;;;;5013990;28;20522;-84
2021/09/29 03:30:08;;;;;;;7.27;6.70;;;14.40;51.90;;;;;;5014199;28;20466;-84
2021/09/29 03:32:34;;;;;;;10.70;6.10;;;14.40;52.10;;;;;;5013932;28;20462;-83
2021/09/29 03:35:00;;;;;;;6.90;6.30;;;14.30;52.10;;;;;;5014177;28;20420;-85
2021/09/29 03:37:25;;;;;;;7.87;7.30;;;14.30;52.60;;;;;;5013698;28;20180;-85
2021/09/29 03:39:51;;;;;;;7.93;7.20;;;14.30;53.00;;;;;;5014005;28;20185;-85
2021/09/29 03:42:16;;;;;;;7.90;7.10;;;14.20;52.90;;;;;;5013846;28;20209;-85
2021/09/29 03:44:42;;;;;;;7.23;6.67;;;14.20;53.10;;;;;;5013942;28;20169;-84
2021/09/29 03:47:08;;;;;;;8.00;7.40;;;14.20;53.80;;;;;;5013637;28;20169;-84
2021/09/29 03:49:33;;;;;;;7.60;6.90;;;14.20;53.20;;;;;;5013996;28;20173;-84
2021/09/29 03:51:59;;;;;;;8.07;7.37;;;14.20;53.50;;;;;;5013674;28;20196;-84
2021/09/29 03:54:25;;;;;;;7.60;6.90;;;14.20;53.30;;;;;;5013641;28;20188;-84
2021/09/29 03:56:51;;;;;;;6.90;6.33;;;14.20;53.10;;;;;;5013460;28;20188;-84
2021/09/29 03:59:16;;;;;;;8.00;7.40;;;14.30;53.30;;;;;;5013808;28;20181;-84
2021/09/29 04:01:43;;;;;;;7.80;7.00;;;14.30;53.40;;;;;;5013704;28;20255;-88
2021/09/29 04:04:09;;;;;;;8.77;7.53;;;14.30;53.50;;;;;;5013640;28;20177;-85
2021/09/29 04:06:35;;;;;;;8.30;6.47;;;14.30;53.20;;;;;;5013729;28;20423;-86
2021/09/29 04:09:01;;;;;;;7.10;6.40;;;14.30;53.00;;;;;;5030027;28;20213;-85
2021/09/29 04:11:27;;;;;;;7.17;6.67;;;14.30;53.30;;;;;;5014719;28;20459;-85
2021/09/29 04:13:52;;;;;;;6.70;6.10;;;14.30;53.10;;;;;;5014078;28;20177;-86
2021/09/29 04:16:18;;;;;;;7.30;6.43;;;14.40;53.30;;;;;;5014223;28;20535;-85
2021/09/29 04:18:43;;;;;;;8.93;7.83;;;14.40;53.00;;;;;;5030593;28;20184;-86
2021/09/29 04:21:13;;;;;;;8.20;7.40;;;14.30;53.00;;;;;;5013391;28;20185;-86
2021/09/29 04:23:39;;;;;;;7.10;6.60;;;14.40;52.80;;;;;;5013260;28;20288;-85
2021/09/29 04:26:06;;;;;;;7.17;6.50;;;14.40;53.30;;;;;;5013534;28;20963;-86
2021/09/29 04:28:31;;;;;;;6.07;5.53;;;14.40;53.20;;;;;;5013115;28;20424;-83
2021/09/29 04:30:58;;;;;;;6.40;5.80;;;14.40;53.10;;;;;;5013830;28;20773;-83
2021/09/29 04:33:23;;;;;;;7.03;6.50;;;14.40;53.30;;;;;;5029553;28;20704;-84
2021/09/29 04:35:49;;;;;;;6.10;5.60;;;14.40;52.90;;;;;;5013071;28;20586;-82
2021/09/29 04:38:15;;;;;;;6.57;5.33;;;14.40;53.20;;;;;;5029171;28;20645;-82
2021/09/29 04:40:41;;;;;;;6.37;5.87;;;14.40;53.10;;;;;;5013104;28;20761;-85
2021/09/29 04:43:07;;;;;;;5.60;5.13;;;14.40;53.00;;;;;;5013343;28;20205;-84
2021/09/29 04:45:32;;;;;;;6.67;6.00;;;14.40;52.90;;;;;;5013181;28;20209;-83
2021/09/29 04:48:02;;;;;;;7.00;6.30;;;14.40;53.20;;;;;;5014283;28;20404;-83
2021/09/29 04:50:28;;;;;;;6.57;5.93;;;14.40;52.90;;;;;;5013089;28;20201;-83
2021/09/29 04:52:53;;;;;;;6.23;5.57;;;14.40;53.10;;;;;;5013056;28;20923;-85
2021/09/29 04:55:19;;;;;;;6.67;6.27;;;14.40;53.00;;;;;;5013097;28;20177;-82
2021/09/29 04:57:45;;;;;;;6.43;5.70;;;14.40;53.10;;;;;;5012923;28;20182;-83
2021/09/29 05:00:11;;;;;;;6.27;5.70;;;14.40;53.20;;;;;;5013013;28;20185;-83
2021/09/29 05:02:39;;;;;;;7.30;6.57;;;14.30;53.30;;;;;;5012818;28;20594;-83
2021/09/29 05:05:05;;;;;;;7.07;6.37;;;14.30;53.80;;;;;;5012852;28;20421;-84
2021/09/29 05:07:33;;;;;;;6.87;6.27;;;14.30;54.00;;;;;;5012502;28;20412;-84
2021/09/29 05:09:58;;;;;;;10.43;5.87;;;14.30;54.20;;;;;;5012708;28;20490;-81
2021/09/29 05:12:32;;;;;;;6.23;5.73;;;14.30;54.10;;;;;;5028944;28;20408;-83
2021/09/29 05:14:58;;;;;;;5.80;5.30;;;14.30;54.50;;;;;;5006488;28;20240;-83
2021/09/29 05:17:24;;;;;;;6.20;5.80;;;14.30;54.20;;;;;;5020394;28;20437;-83
2021/09/29 05:19:50;;;;;;;6.47;5.80;;;14.20;54.10;;;;;;5031474;28;20434;-83
2021/09/29 05:22:16;;;;;;;7.07;6.50;;;14.30;54.20;;;;;;5031231;28;20470;-82
2021/09/29 05:24:43;;;;;;;6.90;5.43;;;14.30;54.50;;;;;;5031577;28;20470;-82
2021/09/29 05:27:09;;;;;;;5.53;5.07;;;14.20;54.10;;;;;;5031104;28;20408;-83
2021/09/29 05:29:38;;;;;;;6.23;5.83;;;14.20;54.40;;;;;;5030362;28;20422;-83
2021/09/29 05:32:04;;;;;;;6.40;5.90;;;14.20;54.50;;;;;;5031045;28;20271;-84
2021/09/29 05:34:29;;;;;;;5.13;4.70;;;14.20;54.50;;;;;;5031427;28;20427;-84
2021/09/29 05:36:55;;;;;;;6.30;5.70;;;14.10;54.70;;;;;;5030880;28;20746;-84
2021/09/29 05:39:22;;;;;;;5.77;5.27;;;14.20;54.50;;;;;;5031471;28;20184;-84
2021/09/29 05:41:48;;;;;;;6.50;6.00;;;14.20;54.00;;;;;;5031132;28;20871;-84
2021/09/29 05:44:14;;;;;;;6.63;5.53;;;14.20;54.90;;;;;;5030882;28;20446;-84
2021/09/29 05:46:40;;;;;;;6.00;5.60;;;14.20;55.10;;;;;;5030764;28;20416;-84
2021/09/29 05:49:05;;;;;;;5.73;5.23;;;14.20;54.70;;;;;;5032124;28;20655;-84
2021/09/29 05:51:31;;;;;;;5.90;5.50;;;14.20;55.10;;;;;;5030903;28;20191;-84
2021/09/29 05:53:56;;;;;;;5.23;4.90;;;14.10;54.60;;;;;;5030985;28;20184;-84
2021/09/29 05:56:22;;;;;;;8.03;5.20;;;14.00;54.50;;;;;;5031026;28;20262;-82
2021/09/29 05:58:48;;;;;;;6.53;5.73;;;14.00;55.00;;;;;;5030459;28;20652;-81
2021/09/29 06:01:14;;;;;;;7.90;5.33;;;14.00;54.90;;;;;;5031498;28;20427;-84
2021/09/29 06:03:39;;;;;;;6.17;5.57;;;14.10;55.00;;;;;;5031297;28;20208;-84
2021/09/29 06:06:05;;;;;;;5.47;5.00;;;14.00;54.90;;;;;;5031431;28;20185;-84
2021/09/29 06:08:31;;;;;;;6.57;5.50;;;14.10;55.10;;;;;;5031141;28;20180;-83
2021/09/29 06:10:57;;;;;;;5.80;5.30;;;14.10;55.00;;;;;;5031560;28;20429;-83
2021/09/29 06:13:24;;;;;;;6.53;5.07;;;14.10;55.00;;;;;;5031384;28;20565;-84
2021/09/29 06:15:50;;;;;;;6.10;5.20;;;14.20;54.70;;;;;;5031280;28;20518;-84
2021/09/29 06:18:16;;;;;;;6.50;5.23;;;14.30;53.90;;;;;;5031242;28;20438;-85
2021/09/29 06:20:45;;;;;;;6.47;5.50;;;14.40;53.40;;;;;;5031388;28;20937;-84
2021/09/29 06:23:11;;;;;;;4.53;4.23;;;14.50;53.10;;;;;;5031163;28;20466;-84
2021/09/29 06:25:36;;;;;;;7.23;5.20;;;14.70;52.30;;;;;;5031178;28;20434;-85
2021/09/29 06:28:02;;;;;;;5.43;4.93;;;14.80;52.10;;;;;;5030905;28;20909;-82
2021/09/29 06:30:28;;;;;;;5.90;5.50;;;15.00;51.20;;;;;;5030925;28;20180;-83
2021/09/29 06:32:54;;;;;;;6.60;4.90;;;15.00;50.60;;;;;;5030438;28;20463;-82
2021/09/29 06:35:19;;;;;;;15.13;4.77;;;15.00;51.10;;;;;;5031097;28;20551;-83
2021/09/29 06:37:45;;;;;;;5.50;4.90;;;15.10;51.20;;;;;;5027391;28;20184;-81
2021/09/29 06:40:19;;;;;;;7.43;4.50;;;15.10;49.70;;;;;;5027219;28;20188;-84
2021/09/29 06:42:46;;;;;;;7.40;4.63;;;15.20;49.50;;;;;;5017562;28;20689;-83
2021/09/29 06:45:13;;;;;;;5.10;4.60;;;15.00;49.40;;;;;;5034914;28;20423;-83
2021/09/29 06:47:39;;;;;;;4.73;4.40;;;15.10;50.40;;;;;;5034587;28;20796;-84
2021/09/29 06:50:07;;;;;;;6.10;4.03;;;15.10;49.60;;;;;;5034473;28;20506;-82
2021/09/29 06:52:33;;;;;;;4.50;3.90;;;15.10;49.40;;;;;;5034512;28;20435;-83
2021/09/29 06:54:58;;;;;;;5.20;4.10;;;15.10;49.60;;;;;;5035012;28;20414;-84
2021/09/29 06:57:24;;;;;;;5.40;4.67;;;15.10;49.20;;;;;;5033626;28;20423;-84
2021/09/29 06:59:50;;;;;;;4.93;4.43;;;15.20;48.40;;;;;;5035504;28;20176;-84
2021/09/29 07:02:15;;;;;;;3.80;3.50;;;15.40;49.80;;;;;;5032055;28;20291;-84
2021/09/29 07:04:41;;;;;;;4.60;3.90;;;15.30;48.30;;;;;;5014627;28;20209;-85
2021/09/29 07:07:07;;;;;;;4.73;3.43;;;15.30;48.30;;;;;;5017300;28;20291;-85
2021/09/29 07:09:32;;;;;;;3.90;3.63;;;15.50;48.00;;;;;;5033731;28;20269;-84
2021/09/29 07:11:58;;;;;;;3.43;3.03;;;15.50;47.80;;;;;;5034034;28;20177;-84
2021/09/29 07:14:24;;;;;;;5.53;3.00;;;15.50;47.10;;;;;;5034867;28;20177;-84
2021/09/29 07:16:51;;;;;;;4.17;3.60;;;15.40;47.50;;;;;;5033674;28;20183;-84
2021/09/29 07:19:17;;;;;;;3.77;3.47;;;15.60;47.00;;;;;;5033816;28;20183;-84
2021/09/29 07:21:43;;;;;;;3.37;3.17;;;15.60;46.40;;;;;;5033969;28;20472;-83
2021/09/29 07:24:08;;;;;;;3.40;3.10;;;15.60;46.50;;;;;;5033764;28;20187;-84
2021/09/29 07:26:35;;;;;;;4.20;3.80;;;15.60;46.60;;;;;;5033816;28;20267;-84
2021/09/29 07:29:00;;;;;;;3.20;3.00;;;15.80;45.80;;;;;;5033484;28;20258;-84
2021/09/29 07:31:27;;;;;;;4.10;3.70;;;15.70;46.10;;;;;;5034000;28;20411;-82
2021/09/29 07:33:53;;;;;;;3.90;3.60;;;15.80;45.50;;;;;;5032966;28;20437;-82
2021/09/29 07:36:19;;;;;;;3.17;2.87;;;15.80;46.00;;;;;;5033598;28;20176;-83
2021/09/29 07:38:44;;;;;;;4.97;3.27;;;16.00;44.90;;;;;;5033452;28;20256;-81
2021/09/29 07:41:10;;;;;;;5.37;3.60;;;16.00;45.40;;;;;;5033775;28;20184;-81
2021/09/29 07:43:36;;;;;;;4.50;3.00;;;16.20;43.10;;;;;;5033294;28;20250;-81
2021/09/29 07:46:03;;;;;;;3.37;3.07;;;16.10;44.00;;;;;;5033445;28;20169;-83
2021/09/29 07:48:29;;;;;;;4.60;3.33;;;16.20;43.40;;;;;;5033472;28;20552;-83
2021/09/29 07:50:54;;;;;;;4.40;4.00;;;16.60;43.60;;;;;;5033423;28;20411;-83
2021/09/29 07:53:24;;;;;;;3.67;3.00;;;16.50;42.80;;;;;;5032215;28;20675;-82
2021/09/29 07:55:50;;;;;;;3.87;3.40;;;16.30;43.50;;;;;;5029959;28;20176;-83
2021/09/29 07:58:16;;;;;;;3.50;3.10;;;16.40;43.30;;;;;;5032914;28;20424;-83
2021/09/29 08:00:42;;;;;;;4.13;3.33;;;16.30;43.90;;;;;;5033335;28;20411;-83
2021/09/29 08:03:07;;;;;;;3.70;3.40;;;16.40;43.50;;;;;;5033056;28;20279;-83
2021/09/29 08:05:33;;;;;;;3.37;2.77;;;16.40;43.70;;;;;;5033029;28;20536;-83
2021/09/29 08:07:59;;;;;;;2.90;2.70;;;16.30;42.70;;;;;;5032594;28;20195;-82
2021/09/29 08:10:25;;;;;;;2.70;2.50;;;16.40;43.00;;;;;;5032975;28;20418;-82
2021/09/29 08:12:50;;;;;;;4.60;3.53;;;16.40;43.10;;;;;;5032783;28;20273;-82
2021/09/29 08:15:16;;;;;;;2.97;2.70;;;16.40;43.10;;;;;;5032829;28;20187;-83
2021/09/29 08:17:43;;;;;;;6.00;2.60;;;16.40;42.80;;;;;;5032954;28;20181;-83
2021/09/29 08:20:11;;;;;;;4.07;3.17;;;16.40;44.00;;;;;;5032776;28;20177;-83
2021/09/29 08:22:38;;;;;;;3.30;2.60;;;16.50;42.40;;;;;;5032631;28;20585;-83
2021/09/29 08:32:28;;;;;;;6.70;3.53;;;16.50;41.40;;;;;;5034324;28;20177;-83
2021/09/29 08:44:55;;;;;;;5.03;2.50;;;16.90;39.90;;;;;;5033923;28;20912;-86
2021/09/29 08:52:38;;;;;;;3.57;3.27;;;17.00;40.10;;;;;;5013139;28;20432;-86
2021/09/29 08:55:29;;;;;;;14.10;9.37;;;17.10;39.80;;;;;;5012478;28;20428;-85
2021/09/29 09:17:36;;;;;;;3.03;2.30;;;17.30;37.90;;;;;;5012799;28;20503;-86
2021/09/29 09:20:25;;;;;;;3.33;2.43;;;17.20;38.40;;;;;;5012009;28;20408;-86
2021/09/29 09:22:53;;;;;;;9.43;2.50;;;17.50;38.70;;;;;;5011956;28;21112;-86
2021/09/29 09:25:34;;;;;;;6.63;2.43;;;17.40;38.70;;;;;;5011797;28;20423;-86
2021/09/29 09:28:01;;;;;;;2.20;2.03;;;17.40;38.20;;;;;;5011884;28;20503;-86
2021/09/29 09:30:32;;;;;;;4.23;2.23;;;17.40;38.00;;;;;;5011738;28;20422;-86
2021/09/29 09:32:59;;;;;;;3.20;2.30;;;17.60;39.00;;;;;;5011800;28;20425;-87
2021/09/29 09:35:29;;;;;;;2.70;2.43;;;17.80;37.20;;;;;;5011938;28;20412;-86
2021/09/29 09:37:57;;;;;;;2.43;2.23;;;17.90;35.90;;;;;;5011567;28;20455;-86
2021/09/29 09:40:26;;;;;;;4.30;2.40;;;18.00;35.30;;;;;;5011417;28;20515;-85
2021/09/29 09:42:56;;;;;;;4.37;2.20;;;18.00;35.30;;;;;;5014175;28;20460;-86
2021/09/29 09:45:43;;;;;;;5.53;1.67;;;18.30;39.70;;;;;;5011602;28;20416;-83
2021/09/29 09:48:17;;;;;;;2.10;2.00;;;18.30;35.00;;;;;;5011397;28;20431;-83
2021/09/29 09:50:43;;;;;;;10.97;2.77;;;18.40;36.50;;;;;;5011314;28;20412;-83
2021/09/29 09:53:14;;;;;;;5.17;1.90;;;18.50;35.00;;;;;;5011170;28;20455;-83
2021/09/29 09:55:40;;;;;;;2.93;2.40;;;18.40;36.20;;;;;;5011241;28;20456;-83
2021/09/29 09:58:06;;;;;;;5.27;2.43;;;18.40;36.30;;;;;;5011115;28;20463;-83
2021/09/29 10:00:33;;;;;;;3.17;1.83;;;18.30;35.70;;;;;;5011411;28;20412;-83
2021/09/29 10:03:00;;;;;;;9.00;2.30;;;18.20;35.90;;;;;;5010727;28;20201;-83
2021/09/29 10:05:28;;;;;;;2.10;1.90;;;18.30;37.80;;;;;;5011269;28;20990;-83
2021/09/29 10:07:54;;;;;;;3.73;1.60;;;18.30;35.80;;;;;;5010819;28;20427;-83
2021/09/29 10:27:12;;;;;;;7.43;2.37;;;18.50;32.90;;;;;;5032083;28;20410;-83
2021/09/29 10:29:48;;;;;;;4.60;1.77;;;18.40;32.90;;;;;;5030473;28;20415;-84
2021/09/29 10:32:17;;;;;;;2.17;1.60;;;18.50;32.80;;;;;;5016669;28;20448;-83
2021/09/29 10:37:54;;;;;;;1.73;1.63;;;18.50;31.40;;;;;;5031885;28;20453;-83
2021/09/29 10:40:34;;;;;;;3.33;1.50;;;18.40;31.60;;;;;;5030500;28;20414;-83
2021/09/29 10:43:03;;;;;;;2.50;1.63;;;18.40;31.50;;;;;;5030585;28;20833;-83
2021/09/29 10:48:28;;;;;;;1.73;1.53;;;18.20;34.10;;;;;;5031969;28;20457;-83
2021/09/29 11:05:30;;;;;;;1.90;1.60;;;18.20;36.20;;;;;;5031735;28;20774;-84
2021/09/29 11:30:37;;;;;;;2.20;1.70;;;18.50;34.30;;;;;;5035012;28;20407;-84
2021/09/29 11:33:05;;;;;;;5.60;1.60;;;18.50;33.60;;;;;;5033800;28;20451;-85
2021/09/29 11:35:44;;;;;;;2.90;1.77;;;18.70;33.90;;;;;;5033625;28;20497;-84
2021/09/29 12:09:40;;;;;;;2.73;1.67;;;19.20;31.30;;;;;;5034674;28;20466;-83
2021/09/29 12:15:06;;;;;;;3.13;1.50;;;19.20;30.20;;;;;;5014924;28;20515;-84
2021/09/29 12:17:37;;;;;;;4.50;1.40;;;19.30;29.50;;;;;;5012585;28;20416;-84
2021/09/29 12:20:14;;;;;;;4.27;1.50;;;19.40;29.60;;;;;;5013408;28;20570;-84
2021/09/29 12:22:53;;;;;;;1.57;1.10;;;19.40;29.20;;;;;;5012618;28;20463;-84
2021/09/29 12:26:03;;;;;;;2.43;1.10;;;19.50;29.60;;;;;;5013094;28;20419;-84
2021/09/29 12:34:16;;;;;;;4.10;1.57;;;19.50;29.70;;;;;;5030794;28;20181;-84
2021/09/29 12:36:41;;;;;;;2.67;1.80;;;19.60;29.70;;;;;;5023602;28;20444;-85
2021/09/29 12:39:22;;;;;;;9.40;1.57;;;19.50;29.70;;;;;;5024843;28;20922;-84
2021/09/29 12:41:56;;;;;;;3.87;1.23;;;19.50;29.60;;;;;;5021123;28;20180;-85
2021/09/29 12:44:22;;;;;;;32.87;5.77;;;19.50;29.60;;;;;;5023416;28;20969;-84
2021/09/29 12:47:04;;;;;;;2.60;1.50;;;19.50;29.00;;;;;;5022872;28;20424;-84
2021/09/29 12:49:30;;;;;;;2.50;1.50;;;19.40;29.50;;;;;;5040105;28;20407;-84
2021/09/29 12:52:09;;;;;;;1.23;1.00;;;19.30;29.60;;;;;;5021085;28;20530;-83
2021/09/29 12:54:36;;;;;;;1.73;1.30;;;19.20;29.90;;;;;;5022647;28;20180;-83
2021/09/29 12:57:01;;;;;;;1.53;1.10;;;19.30;29.70;;;;;;5021924;28;20432;-83
2021/09/29 12:59:27;;;;;;;1.63;1.40;;;19.10;30.30;;;;;;5025576;28;20835;-83
2021/09/29 13:01:53;;;;;;;3.90;1.40;;;19.10;30.40;;;;;;5023647;28;20181;-84
2021/09/29 13:04:22;;;;;;;2.70;1.53;;;19.10;30.60;;;;;;5022234;28;20257;-83
2021/09/29 13:06:47;;;;;;;1.70;1.30;;;19.10;30.70;;;;;;5022548;28;20169;-84
2021/09/29 13:09:13;;;;;;;3.17;1.40;;;19.00;30.80;;;;;;5020778;28;20555;-84
2021/09/29 13:11:39;;;;;;;1.53;1.33;;;19.00;31.70;;;;;;5016730;28;20268;-83
2021/09/29 13:14:04;;;;;;;2.00;1.30;;;19.00;31.40;;;;;;5012296;28;20185;-84
2021/09/29 13:16:32;;;;;;;1.70;1.53;;;19.00;31.30;;;;;;5011943;28;20209;-84
2021/09/29 13:19:01;;;;;;;1.57;1.10;;;19.10;32.20;;;;;;5011756;28;20614;-84
2021/09/29 13:21:42;;;;;;;2.67;1.40;;;19.30;31.60;;;;;;5012121;28;20416;-83
2021/09/29 13:24:25;;;;;;;1.50;1.37;;;19.40;31.70;;;;;;5011888;28;20526;-83
2021/09/29 13:37:34;;;;;;;4.47;1.30;;;18.80;33.80;;;;;;4996433;28;20494;-83
2021/09/29 13:40:00;;;;;;;4.83;1.60;;;18.70;35.70;;;;;;5011480;28;20872;-83
2021/09/29 13:42:25;;;;;;;1.70;1.30;;;18.40;40.80;;;;;;5011788;28;20205;-84
2021/09/29 13:44:52;;;;;;;1.70;1.60;;;18.10;45.40;;;;;;5011569;28;20295;-84
2021/09/29 13:47:17;;;;;;;2.53;1.60;;;17.80;48.60;;;;;;5011421;28;20188;-84
2021/09/29 13:49:43;;;;;;;3.40;2.80;;;17.50;50.90;;;;;;5010978;28;20463;-84
2021/09/29 13:52:13;;;;;;;3.67;2.10;;;17.40;51.60;;;;;;5011303;28;20196;-85
2021/09/29 13:54:40;;;;;;;3.97;1.80;;;17.20;53.20;;;;;;5011504;28;20177;-85
2021/09/29 13:57:26;;;;;;;2.00;1.60;;;17.00;53.80;;;;;;5011512;28;20421;-84
2021/09/29 14:29:28;;;;;;;2.00;1.90;;;16.20;51.40;;;;;;5032158;28;20398;-84
2021/09/29 14:34:22;;;;;;;2.47;1.40;;;16.10;53.20;;;;;;5031696;28;20790;-84
2021/09/29 14:36:48;;;;;;;1.70;1.60;;;15.90;53.20;;;;;;5030452;28;20424;-84
2021/09/29 14:39:13;;;;;;;1.63;1.53;;;15.50;56.20;;;;;;5031197;28;20176;-84
2021/09/29 14:41:39;;;;;;;1.67;1.57;;;15.30;56.10;;;;;;5030681;28;20181;-86
2021/09/29 14:44:05;;;;;;;3.90;1.97;;;15.20;55.20;;;;;;5030459;28;20215;-86
2021/09/29 14:46:31;;;;;;;1.83;1.70;;;15.00;57.10;;;;;;5030674;28;20176;-86
2021/09/29 14:48:57;;;;;;;1.70;1.60;;;15.00;55.60;;;;;;5030255;28;20427;-86
2021/09/29 14:51:22;;;;;;;1.47;1.47;;;14.80;58.00;;;;;;5030771;28;20180;-86
2021/09/29 14:53:49;;;;;;;2.50;1.70;;;14.80;58.20;;;;;;5031108;28;20629;-86
2021/09/29 14:56:19;;;;;;;1.67;1.57;;;14.80;59.90;;;;;;5031516;28;20211;-84
2021/09/29 14:58:45;;;;;;;2.07;1.43;;;14.80;58.40;;;;;;5030393;28;20426;-86
2021/09/29 15:01:10;;;;;;;1.60;1.50;;;14.70;57.40;;;;;;5031111;28;20993;-87
2021/09/29 15:03:37;;;;;;;1.80;1.70;;;14.70;59.50;;;;;;5034160;28;20462;-86
2021/09/29 15:06:03;;;;;;;2.40;1.80;;;14.70;59.40;;;;;;5017711;28;20243;-86
2021/09/29 15:08:30;;;;;;;2.17;1.40;;;14.60;58.40;;;;;;5014442;28;20448;-86
2021/09/29 15:10:56;;;;;;;1.60;1.57;;;14.60;57.40;;;;;;5015097;28;21006;-87
2021/09/29 15:13:30;;;;;;;1.50;1.50;;;14.60;59.80;;;;;;5016540;28;20419;-85
2021/09/29 15:16:04;;;;;;;3.47;1.80;;;14.60;59.30;;;;;;5034888;28;20437;-85
2021/09/29 15:27:08;;;;;;;1.60;1.50;;;14.60;56.90;;;;;;5035672;28;20177;-82
2021/09/29 15:48:01;;;;;;;1.50;1.50;;;14.40;54.20;;;;;;5016675;28;20484;-83
2021/09/29 16:01:05;;;;;;;2.17;1.83;;;14.40;53.40;;;;;;5035379;28;20176;-83
2021/09/29 16:03:47;;;;;;;1.60;1.50;;;14.50;55.40;;;;;;5049448;28;20463;-83
2021/09/29 16:06:37;;;;;;;1.60;1.50;;;14.50;54.60;;;;;;5032375;28;20561;-83
2021/09/29 16:22:52;;;;;;;2.10;1.63;;;14.40;52.00;;;;;;5025146;28;20966;-85
2021/09/29 16:30:52;;;;;;;1.70;1.60;;;14.40;52.00;;;;;;5016149;28;20438;-83
2021/09/29 16:33:48;;;;;;;1.50;1.40;;;14.40;53.60;;;;;;5013971;28;20494;-83
2021/09/29 16:36:15;;;;;;;1.50;1.40;;;14.40;55.30;;;;;;5013255;28;20416;-84
2021/09/29 16:38:44;;;;;;;1.80;1.70;;;14.40;55.30;;;;;;5013375;28;20842;-83
2021/09/29 16:41:11;;;;;;;3.90;1.50;;;14.40;53.30;;;;;;5013486;28;20832;-84
2021/09/29 16:43:36;;;;;;;1.20;1.10;;;14.40;52.70;;;;;;5013262;28;20460;-83
2021/09/29 16:46:03;;;;;;;1.60;1.50;;;14.40;52.10;;;;;;5013759;28;20415;-83
2021/09/29 16:48:31;;;;;;;1.63;1.33;;;14.30;53.50;;;;;;5013235;28;20173;-83
2021/09/29 16:51:36;;;;;;;2.57;1.20;;;14.40;51.50;;;;;;5027424;28;20419;-83
2021/09/29 16:53:56;;;;;;;3.00;2.80;;;14.40;53.10;;;;;;5028375;28;20466;-84
2021/09/29 16:56:21;;;;;;;1.50;1.40;;;14.30;52.80;;;;;;5032269;28;20937;-83